createdAt,value
2018-05-16T00:02:11.319Z,8.95
2018-05-16T00:04:38.939Z,6.37
2018-05-16T00:07:06.572Z,6.85
2018-05-16T00:09:34.196Z,8.25
2018-05-16T00:12:01.794Z,10.48
2018-05-16T00:14:29.435Z,5.90
2018-05-16T00:16:57.042Z,8.15
2018-05-16T00:19:25.421Z,7.82
2018-05-16T00:21:53.085Z,9.00
2018-05-16T00:24:21.517Z,9.00
2018-05-16T00:26:49.100Z,13.50
2018-05-16T00:29:16.712Z,10.95
2018-05-16T00:31:44.338Z,9.70
2018-05-16T00:34:11.925Z,9.77
2018-05-16T00:36:39.553Z,13.98
2018-05-16T00:39:07.925Z,12.45
2018-05-16T00:41:35.518Z,10.70
2018-05-16T00:44:03.912Z,11.40
2018-05-16T00:46:31.608Z,15.70
2018-05-16T00:48:59.212Z,12.65
2018-05-16T00:51:32.526Z,11.80
2018-05-16T00:54:00.156Z,18.45
2018-05-16T00:56:28.517Z,12.68
2018-05-16T00:58:56.156Z,14.27
2018-05-16T01:01:23.799Z,11.85
2018-05-16T01:03:51.412Z,11.70
2018-05-16T01:06:19.830Z,12.27
2018-05-16T01:08:48.197Z,16.10
2018-05-16T01:11:18.676Z,12.52
2018-05-16T01:13:52.467Z,14.07
2018-05-16T01:16:22.879Z,15.27
2018-05-16T01:18:53.516Z,19.67
2018-05-16T01:21:23.451Z,17.83
2018-05-16T01:23:53.403Z,17.33
2018-05-16T01:26:24.147Z,15.57
2018-05-16T01:28:54.975Z,14.70
2018-05-16T01:31:25.400Z,15.85
2018-05-16T01:33:56.372Z,15.88
2018-05-16T01:36:27.668Z,13.80
2018-05-16T01:38:57.751Z,16.77
2018-05-16T01:41:35.150Z,16.55
2018-05-16T01:44:05.067Z,13.15
2018-05-16T01:46:34.866Z,16.73
2018-05-16T01:49:15.943Z,12.73
2018-05-16T01:51:45.883Z,12.10
2018-05-16T01:54:16.138Z,12.05
2018-05-16T01:56:46.916Z,10.23
2018-05-16T01:59:16.845Z,12.50
2018-05-16T02:01:48.369Z,15.45
2018-05-16T02:04:18.290Z,11.75
2018-05-16T02:06:48.832Z,11.50
2018-05-16T02:09:19.581Z,13.38
2018-05-16T02:11:51.224Z,11.63
2018-05-16T02:14:21.265Z,12.37
2018-05-16T02:16:52.629Z,17.00
2018-05-16T02:19:22.478Z,14.82
2018-05-16T02:21:51.806Z,16.75
2018-05-16T02:24:22.700Z,15.50
2018-05-16T02:26:52.393Z,23.85
2018-05-16T02:29:23.541Z,19.52
2018-05-16T02:31:53.339Z,30.08
2018-05-16T02:34:23.219Z,15.57
2018-05-16T02:36:52.797Z,17.48
2018-05-16T02:39:22.637Z,15.60
2018-05-16T02:41:52.236Z,18.45
2018-05-16T02:44:21.636Z,20.37
2018-05-16T02:46:51.978Z,17.02
2018-05-16T02:49:21.525Z,17.73
2018-05-16T02:51:51.057Z,12.77
2018-05-16T02:54:20.653Z,12.93
2018-05-16T02:56:51.303Z,17.40
2018-05-16T02:59:19.917Z,18.80
2018-05-16T03:01:49.499Z,23.17
2018-05-16T03:04:19.253Z,15.15
2018-05-16T03:06:46.877Z,10.20
2018-05-16T03:09:14.491Z,11.32
2018-05-16T03:11:42.113Z,12.57
2018-05-16T03:14:09.709Z,13.85
2018-05-16T03:16:37.320Z,9.85
2018-05-16T03:19:04.970Z,10.20
2018-05-16T03:21:32.586Z,16.50
2018-05-16T03:24:00.224Z,26.80
2018-05-16T03:26:27.810Z,12.15
2018-05-16T03:28:55.394Z,10.68
2018-05-16T03:31:24.676Z,13.65
2018-05-16T03:33:52.309Z,14.23
2018-05-16T03:36:20.678Z,11.15
2018-05-16T03:38:48.309Z,16.50
2018-05-16T03:41:15.890Z,11.32
2018-05-16T03:43:43.522Z,10.60
2018-05-16T03:46:11.131Z,12.30
2018-05-16T03:48:38.761Z,13.82
2018-05-16T03:51:06.332Z,9.88
2018-05-16T03:53:33.916Z,12.15
2018-05-16T03:56:02.321Z,12.07
2018-05-16T03:58:41.683Z,9.30
2018-05-16T04:01:21.223Z,11.27
2018-05-16T04:04:00.794Z,10.65
2018-05-16T04:06:28.424Z,8.98
2018-05-16T04:08:56.034Z,12.02
2018-05-16T04:11:24.446Z,16.62
2018-05-16T04:13:52.039Z,13.20
2018-05-16T04:16:19.639Z,11.32
2018-05-16T04:18:48.041Z,12.95
2018-05-16T04:21:15.661Z,18.73
2018-05-16T04:23:43.265Z,13.68
2018-05-16T04:26:10.897Z,16.00
2018-05-16T04:28:38.471Z,18.23
2018-05-16T04:31:06.117Z,15.07
2018-05-16T04:33:34.509Z,24.10
2018-05-16T04:36:02.846Z,19.73
2018-05-16T04:38:30.508Z,21.05
2018-05-16T04:40:58.132Z,23.65
2018-05-16T04:43:25.744Z,29.83
2018-05-16T04:45:53.378Z,23.87
2018-05-16T04:48:20.980Z,26.08
2018-05-16T04:50:49.415Z,26.30
2018-05-16T04:53:16.997Z,26.20
2018-05-16T04:55:44.672Z,32.88
2018-05-16T04:58:12.317Z,28.23
2018-05-16T05:00:39.961Z,27.98
2018-05-16T05:03:07.546Z,27.50
2018-05-16T05:05:35.299Z,33.30
2018-05-16T05:08:02.902Z,31.95
2018-05-16T05:10:31.259Z,30.02
2018-05-16T05:12:58.899Z,32.65
2018-05-16T05:15:26.498Z,25.12
2018-05-16T05:17:54.127Z,23.23
2018-05-16T05:20:21.772Z,30.45
2018-05-16T05:22:49.357Z,30.92
2018-05-16T05:25:17.752Z,31.92
2018-05-16T05:27:45.360Z,26.62
2018-05-16T05:30:13.027Z,28.83
2018-05-16T05:32:41.404Z,25.52
2018-05-16T05:35:09.045Z,28.20
2018-05-16T05:37:37.510Z,32.92
2018-05-16T05:40:05.106Z,30.92
2018-05-16T05:42:32.718Z,32.58
2018-05-16T05:45:00.337Z,30.70
2018-05-16T05:47:27.992Z,42.10
2018-05-16T05:49:55.665Z,35.90
2018-05-16T05:52:23.329Z,30.90
2018-05-16T05:54:50.991Z,38.80
2018-05-16T05:57:18.654Z,35.42
2018-05-16T05:59:46.289Z,32.67
2018-05-16T06:02:14.632Z,34.45
2018-05-16T06:04:42.280Z,30.40
2018-05-16T06:07:09.888Z,35.88
2018-05-16T06:09:38.285Z,34.10
2018-05-16T06:12:05.902Z,31.75
2018-05-16T06:14:33.538Z,27.05
2018-05-16T06:17:01.182Z,35.85
2018-05-16T06:19:28.792Z,40.20
2018-05-16T06:21:56.446Z,38.78
2018-05-16T06:24:24.034Z,37.95
2018-05-16T06:26:52.457Z,29.30
2018-05-16T06:29:20.367Z,49.45
2018-05-16T06:31:48.104Z,36.78
2018-05-16T06:34:15.687Z,26.95
2018-05-16T06:36:43.293Z,31.00
2018-05-16T06:39:10.961Z,28.45
2018-05-16T06:41:38.618Z,27.23
2018-05-16T06:44:06.259Z,32.30
2018-05-16T06:46:34.766Z,29.75
2018-05-16T06:49:02.389Z,26.62
2018-05-16T06:51:30.145Z,26.05
2018-05-16T06:53:58.116Z,23.87
2018-05-16T06:56:26.740Z,28.55
2018-05-16T06:58:56.995Z,32.95
2018-05-16T07:01:39.389Z,16.92
2018-05-16T07:04:08.255Z,16.52
2018-05-16T07:06:37.036Z,16.02
2018-05-16T07:09:05.999Z,16.15
2018-05-16T07:11:34.651Z,17.05
2018-05-16T07:14:02.638Z,14.40
2018-05-16T07:16:30.673Z,15.70
2018-05-16T07:18:58.680Z,14.27
2018-05-16T07:21:26.653Z,18.65
2018-05-16T07:23:54.278Z,11.85
2018-05-16T07:26:21.958Z,8.45
2018-05-16T07:28:49.647Z,9.25
2018-05-16T07:31:17.249Z,7.60
2018-05-16T07:33:45.655Z,13.25
2018-05-16T07:36:13.279Z,7.47
2018-05-16T07:38:41.705Z,7.68
2018-05-16T07:41:09.325Z,7.72
2018-05-16T07:43:37.743Z,7.10
2018-05-16T07:46:05.365Z,10.73
2018-05-16T07:48:33.752Z,7.75
2018-05-16T07:51:01.386Z,7.97
2018-05-16T07:53:29.008Z,7.05
2018-05-16T07:55:56.644Z,8.35
2018-05-16T07:58:24.278Z,6.93
2018-05-16T08:00:51.915Z,26.15
2018-05-16T08:03:19.669Z,6.87
2018-05-16T08:05:48.031Z,6.50
2018-05-16T08:08:15.657Z,6.50
2018-05-16T08:10:44.195Z,6.57
2018-05-16T08:13:12.578Z,6.47
2018-05-16T08:15:40.236Z,8.43
2018-05-16T08:18:07.907Z,10.63
2018-05-16T08:20:36.481Z,10.65
2018-05-16T08:23:04.116Z,8.50
2018-05-16T08:25:31.761Z,6.55
2018-05-16T08:28:00.130Z,5.95
2018-05-16T08:30:34.701Z,7.65
2018-05-16T08:33:02.363Z,8.40
2018-05-16T08:35:30.750Z,10.23
2018-05-16T08:37:58.395Z,6.40
2018-05-16T08:40:26.059Z,9.45
2018-05-16T08:42:53.815Z,11.27
2018-05-16T08:45:21.545Z,50.00
2018-05-16T08:47:50.003Z,6.80
2018-05-16T08:50:17.977Z,7.68
2018-05-16T08:52:45.613Z,13.60
2018-05-16T08:55:19.779Z,7.65
2018-05-16T08:57:47.492Z,5.62
2018-05-16T09:00:15.171Z,4.93
2018-05-16T09:02:42.798Z,8.63
2018-05-16T09:05:10.480Z,4.10
2018-05-16T09:07:38.081Z,4.22
2018-05-16T09:10:05.700Z,6.32
2018-05-16T09:12:33.371Z,5.18
2018-05-16T09:15:01.029Z,4.65
2018-05-16T09:17:28.920Z,3.95
2018-05-16T09:19:57.368Z,4.87
2018-05-16T09:22:25.029Z,4.12
2018-05-16T09:24:52.678Z,5.43
2018-05-16T09:27:20.313Z,9.82
2018-05-16T09:29:47.979Z,5.32
2018-05-16T09:32:15.638Z,4.78
2018-05-16T09:34:43.296Z,12.35
2018-05-16T09:37:11.124Z,5.70
2018-05-16T09:39:38.746Z,5.47
2018-05-16T09:42:07.130Z,5.30
2018-05-16T09:44:35.533Z,6.40
2018-05-16T09:47:03.126Z,8.60
2018-05-16T09:49:30.786Z,4.47
2018-05-16T09:51:58.390Z,4.18
2018-05-16T09:54:26.789Z,5.03
2018-05-16T09:56:54.417Z,4.07
2018-05-16T09:59:22.071Z,4.12
2018-05-16T10:01:49.752Z,6.45
2018-05-16T10:04:18.227Z,5.87
2018-05-16T10:06:46.728Z,6.28
2018-05-16T10:09:15.151Z,8.50
2018-05-16T10:11:42.769Z,6.90
2018-05-16T10:14:10.401Z,7.55
2018-05-16T10:16:38.114Z,6.03
2018-05-16T10:19:05.819Z,5.35
2018-05-16T10:21:33.455Z,6.40
2018-05-16T10:24:01.141Z,7.68
2018-05-16T10:26:28.762Z,9.02
2018-05-16T10:28:56.423Z,8.57
2018-05-16T10:31:24.035Z,6.93
2018-05-16T10:33:51.674Z,6.45
2018-05-16T10:36:19.269Z,6.32
2018-05-16T10:38:46.948Z,5.45
2018-05-16T10:41:15.343Z,9.18
2018-05-16T10:43:43.104Z,5.87
2018-05-16T10:46:10.724Z,9.10
2018-05-16T10:48:38.395Z,5.70
2018-05-16T10:51:06.048Z,12.20
2018-05-16T10:53:34.073Z,5.30
2018-05-16T10:56:01.447Z,6.03
2018-05-16T10:58:29.867Z,4.80
2018-05-16T11:00:58.397Z,7.65
2018-05-16T11:03:26.105Z,5.20
2018-05-16T11:05:53.771Z,6.28
2018-05-16T11:08:21.418Z,5.80
2018-05-16T11:10:49.031Z,5.62
2018-05-16T11:13:16.701Z,8.33
2018-05-16T11:15:44.613Z,6.95
2018-05-16T11:18:12.294Z,6.97
2018-05-16T11:20:40.716Z,7.30
2018-05-16T11:23:08.524Z,7.93
2018-05-16T11:25:36.146Z,8.93
2018-05-16T11:28:03.765Z,9.57
2018-05-16T11:30:31.758Z,7.60
2018-05-16T11:32:59.474Z,10.50
2018-05-16T11:35:27.128Z,12.02
2018-05-16T11:37:54.759Z,9.00
2018-05-16T11:40:22.370Z,9.68
2018-05-16T11:42:50.056Z,28.55
2018-05-16T11:45:17.687Z,9.45
2018-05-16T11:47:45.327Z,13.18
2018-05-16T11:50:12.917Z,13.73
2018-05-16T11:52:40.623Z,11.10
2018-05-16T11:55:09.026Z,9.50
2018-05-16T11:57:36.690Z,11.73
2018-05-16T12:00:04.283Z,9.53
2018-05-16T12:02:31.923Z,15.63
2018-05-16T12:04:59.572Z,11.33
2018-05-16T12:07:27.170Z,10.13
2018-05-16T12:09:54.861Z,9.67
2018-05-16T12:12:22.493Z,8.53
2018-05-16T12:14:50.192Z,11.73
2018-05-16T12:17:17.796Z,9.80
2018-05-16T12:19:45.430Z,17.60
2018-05-16T12:22:13.047Z,14.50
2018-05-16T12:24:40.720Z,8.57
2018-05-16T12:27:08.347Z,12.50
2018-05-16T12:29:35.981Z,10.70
2018-05-16T12:32:03.661Z,9.20
2018-05-16T12:34:31.277Z,11.00
2018-05-16T12:36:58.911Z,11.70
2018-05-16T12:39:26.761Z,9.40
2018-05-16T12:41:54.458Z,10.60
2018-05-16T12:44:22.144Z,9.07
2018-05-16T12:46:49.834Z,10.83
2018-05-16T12:49:17.568Z,20.63
2018-05-16T12:51:45.318Z,12.70
2018-05-16T12:54:13.014Z,17.50
2018-05-16T12:56:40.714Z,10.47
2018-05-16T12:59:09.227Z,10.30
2018-05-16T13:01:37.394Z,10.63
2018-05-16T13:04:05.086Z,8.87
2018-05-16T13:06:34.246Z,12.43
2018-05-16T13:09:01.897Z,11.97
2018-05-16T13:11:29.569Z,9.87
2018-05-16T13:13:57.185Z,15.67
2018-05-16T13:16:25.586Z,8.67
2018-05-16T13:18:53.261Z,14.60
2018-05-16T13:21:21.051Z,14.63
2018-05-16T13:23:48.760Z,13.47
2018-05-16T13:26:17.295Z,14.77
2018-05-16T13:28:44.879Z,10.13
2018-05-16T13:31:12.518Z,12.83
2018-05-16T13:33:40.160Z,10.90
2018-05-16T13:36:07.923Z,15.43
2018-05-16T13:38:35.613Z,18.83
2018-05-16T13:41:03.239Z,14.97
2018-05-16T13:43:30.922Z,9.17
2018-05-16T13:45:58.592Z,17.97
2018-05-16T13:48:26.254Z,7.75
2018-05-16T13:50:53.875Z,21.52
2018-05-16T13:53:21.544Z,7.40
2018-05-16T13:55:49.944Z,9.80
2018-05-16T13:58:17.544Z,7.45
2018-05-16T14:00:45.206Z,8.35
2018-05-16T14:03:12.859Z,9.52
2018-05-16T14:05:40.531Z,6.75
2018-05-16T14:08:08.164Z,5.53
2018-05-16T14:10:37.541Z,6.07
2018-05-16T14:13:05.176Z,9.90
2018-05-16T14:15:33.572Z,5.07
2018-05-16T14:18:01.342Z,4.78
2018-05-16T14:20:29.031Z,5.30
2018-05-16T14:22:56.658Z,5.72
2018-05-16T14:25:25.059Z,4.93
2018-05-16T14:27:52.774Z,8.10
2018-05-16T14:30:20.405Z,8.52
2018-05-16T14:32:48.002Z,10.23
2018-05-16T14:35:15.613Z,5.82
2018-05-16T14:37:43.267Z,9.15
2018-05-16T14:40:10.913Z,15.13
2018-05-16T14:42:38.617Z,7.75
2018-05-16T14:45:06.177Z,7.28
2018-05-16T14:47:33.766Z,7.22
2018-05-16T14:50:01.557Z,7.37
2018-05-16T14:52:29.496Z,4.62
2018-05-16T14:54:57.150Z,15.15
2018-05-16T14:57:24.767Z,4.10
2018-05-16T14:59:59.208Z,5.43
2018-05-16T15:02:26.824Z,4.53
2018-05-16T15:04:54.555Z,7.22
2018-05-16T15:07:22.294Z,7.07
2018-05-16T15:09:50.282Z,5.80
2018-05-16T15:12:17.981Z,4.62
2018-05-16T15:14:46.518Z,5.87
2018-05-16T15:17:14.086Z,4.93
2018-05-16T15:19:41.751Z,6.12
2018-05-16T15:22:09.429Z,4.40
2018-05-16T15:24:37.113Z,6.10
2018-05-16T15:27:04.829Z,5.00
2018-05-16T15:29:33.182Z,5.15
2018-05-16T15:32:00.841Z,4.62
2018-05-16T15:34:28.747Z,7.22
2018-05-16T15:36:56.563Z,5.45
2018-05-16T15:39:24.263Z,6.05
2018-05-16T15:41:51.869Z,7.53
2018-05-16T15:44:19.610Z,6.82
2018-05-16T15:46:47.286Z,5.78
2018-05-16T15:49:14.967Z,6.32
2018-05-16T15:51:42.571Z,5.03
2018-05-16T15:54:10.215Z,5.12
2018-05-16T15:56:37.817Z,4.60
2018-05-16T15:59:07.125Z,6.22
2018-05-16T16:01:35.921Z,5.25
2018-05-16T16:04:04.382Z,6.85
2018-05-16T16:06:32.015Z,7.80
2018-05-16T16:08:59.609Z,5.12
2018-05-16T16:11:27.259Z,5.85
2018-05-16T16:13:54.913Z,6.65
2018-05-16T16:16:22.608Z,5.97
2018-05-16T16:18:50.251Z,8.27
2018-05-16T16:21:17.870Z,5.50
2018-05-16T16:23:46.219Z,5.47
2018-05-16T16:26:13.942Z,9.85
2018-05-16T16:28:41.541Z,4.45
2018-05-16T16:31:10.027Z,7.87
2018-05-16T16:33:38.405Z,7.43
2018-05-16T16:36:06.178Z,5.20
2018-05-16T16:38:33.899Z,5.07
2018-05-16T16:41:01.538Z,5.45
2018-05-16T16:43:29.905Z,6.15
2018-05-16T16:45:58.345Z,12.55
2018-05-16T16:48:25.941Z,9.85
2018-05-16T16:50:53.550Z,7.05
2018-05-16T16:53:21.205Z,7.22
2018-05-16T16:55:48.861Z,6.87
2018-05-16T16:58:16.525Z,13.73
2018-05-16T17:00:44.130Z,8.02
2018-05-16T17:03:11.814Z,9.52
2018-05-16T17:05:39.466Z,7.37
2018-05-16T17:08:07.105Z,7.07
2018-05-16T17:10:34.724Z,12.93
2018-05-16T17:13:02.366Z,7.45
2018-05-16T17:15:30.779Z,8.70
2018-05-16T17:17:58.384Z,9.25
2018-05-16T17:20:26.025Z,8.50
2018-05-16T17:22:53.690Z,11.00
2018-05-16T17:25:21.313Z,7.95
2018-05-16T17:27:49.701Z,9.48
2018-05-16T17:30:17.334Z,6.55
2018-05-16T17:32:45.016Z,8.00
2018-05-16T17:35:13.402Z,8.63
2018-05-16T17:37:40.997Z,7.50
2018-05-16T17:40:08.705Z,7.00
2018-05-16T17:42:36.329Z,7.12
2018-05-16T17:45:03.986Z,6.87
2018-05-16T17:47:31.599Z,9.43
2018-05-16T17:50:00.000Z,9.38
2018-05-16T17:52:27.625Z,15.70
2018-05-16T17:54:55.252Z,6.65
2018-05-16T17:57:22.875Z,8.00
2018-05-16T17:59:51.226Z,8.40
2018-05-16T18:02:18.798Z,7.97
2018-05-16T18:04:47.202Z,8.00
2018-05-16T18:07:15.088Z,8.10
2018-05-16T18:09:42.727Z,9.88
2018-05-16T18:12:10.427Z,8.80
2018-05-16T18:14:59.578Z,11.45
2018-05-16T18:17:27.966Z,8.50
2018-05-16T18:19:55.638Z,10.57
2018-05-16T18:22:23.284Z,10.00
2018-05-16T18:24:50.905Z,10.48
2018-05-16T18:27:18.579Z,7.90
2018-05-16T18:29:47.022Z,11.98
2018-05-16T18:32:14.645Z,8.95
2018-05-16T18:34:42.289Z,10.18
2018-05-16T18:37:10.272Z,9.95
2018-05-16T18:39:37.878Z,7.75
2018-05-16T18:42:05.471Z,9.18
2018-05-16T18:44:33.900Z,8.98
2018-05-16T18:47:01.514Z,7.90
2018-05-16T18:49:29.165Z,9.90
2018-05-16T18:51:56.807Z,10.40
2018-05-16T18:54:24.460Z,9.55
2018-05-16T18:56:52.109Z,16.27
2018-05-16T18:59:19.756Z,16.52
2018-05-16T19:01:47.383Z,11.20
2018-05-16T19:04:15.829Z,10.90
2018-05-16T19:06:43.413Z,10.30
2018-05-16T19:09:11.064Z,12.68
2018-05-16T19:11:38.703Z,9.90
2018-05-16T19:14:06.354Z,12.75
2018-05-16T19:16:34.739Z,10.43
2018-05-16T19:19:02.329Z,10.27
2018-05-16T19:21:29.982Z,10.48
2018-05-16T19:23:57.778Z,11.32
2018-05-16T19:26:26.213Z,10.18
2018-05-16T19:28:53.825Z,12.48
2018-05-16T19:31:22.271Z,17.75
2018-05-16T19:33:49.853Z,14.65
2018-05-16T19:36:18.277Z,19.42
2018-05-16T19:38:46.016Z,17.37
2018-05-16T19:41:13.678Z,14.02
2018-05-16T19:43:42.063Z,10.88
2018-05-16T19:46:10.507Z,13.00
2018-05-16T19:48:38.113Z,11.73
2018-05-16T19:51:06.493Z,20.45
2018-05-16T19:53:34.124Z,25.10
2018-05-16T19:56:01.953Z,13.23
2018-05-16T19:58:29.602Z,14.93
2018-05-16T20:00:57.255Z,17.80
2018-05-16T20:03:27.659Z,21.87
2018-05-16T20:05:55.238Z,15.98
2018-05-16T20:08:22.862Z,21.17
2018-05-16T20:10:52.267Z,21.23
2018-05-16T20:13:20.681Z,15.20
2018-05-16T20:15:48.472Z,18.92
2018-05-16T20:18:16.435Z,19.83
2018-05-16T20:20:44.090Z,15.50
2018-05-16T20:23:11.857Z,18.98
2018-05-16T20:25:39.463Z,15.98
2018-05-16T20:28:07.098Z,14.80
2018-05-16T20:30:34.780Z,16.05
2018-05-16T20:33:02.434Z,19.45
2018-05-16T20:35:31.665Z,14.80
2018-05-16T20:38:00.093Z,13.35
2018-05-16T20:40:27.689Z,14.55
2018-05-16T20:42:55.281Z,14.02
2018-05-16T20:45:22.950Z,15.25
2018-05-16T20:47:51.312Z,17.05
2018-05-16T20:50:18.994Z,15.05
2018-05-16T20:52:46.644Z,14.48
2018-05-16T20:55:15.006Z,15.23
2018-05-16T20:57:42.681Z,21.55
2018-05-16T21:00:11.047Z,16.15
2018-05-16T21:02:38.650Z,22.77
2018-05-16T21:05:06.289Z,17.30
2018-05-16T21:07:34.708Z,13.27
2018-05-16T21:10:02.342Z,14.63
2018-05-16T21:12:30.764Z,11.50
2018-05-16T21:14:58.415Z,15.70
2018-05-16T21:17:26.020Z,13.25
2018-05-16T21:19:53.659Z,17.77
2018-05-16T21:22:21.285Z,13.27
2018-05-16T21:24:48.934Z,28.27
2018-05-16T21:27:17.296Z,15.68
2018-05-16T21:29:44.895Z,16.67
2018-05-16T21:32:12.666Z,18.23
2018-05-16T21:34:40.290Z,16.55
2018-05-16T21:37:07.899Z,14.65
2018-05-16T21:39:35.525Z,16.87
2018-05-16T21:42:03.931Z,16.17
2018-05-16T21:44:31.590Z,16.87
2018-05-16T21:46:59.214Z,16.52
2018-05-16T21:49:27.638Z,24.75
2018-05-16T21:51:55.257Z,17.00
2018-05-16T21:54:22.910Z,20.12
2018-05-16T21:56:50.586Z,20.70
2018-05-16T21:59:18.265Z,29.10
2018-05-16T22:01:45.900Z,23.60
2018-05-16T22:04:13.566Z,19.10
2018-05-16T22:06:41.980Z,20.00
2018-05-16T22:09:09.613Z,25.98
2018-05-16T22:11:38.039Z,24.48
2018-05-16T22:14:05.683Z,21.75
2018-05-16T22:16:33.334Z,25.25
2018-05-16T22:19:01.038Z,28.55
2018-05-16T22:21:28.622Z,21.45
2018-05-16T22:23:56.247Z,22.98
2018-05-16T22:26:23.888Z,29.30
2018-05-16T22:28:51.482Z,26.02
2018-05-16T22:31:24.815Z,24.92
2018-05-16T22:33:57.972Z,25.73
2018-05-16T22:36:31.280Z,29.70
2018-05-16T22:39:04.614Z,27.90
2018-05-16T22:41:37.848Z,30.30
2018-05-16T22:44:11.212Z,28.60
2018-05-16T22:46:38.845Z,32.63
2018-05-16T22:49:06.493Z,26.75
2018-05-16T22:51:34.082Z,30.37
2018-05-16T22:54:01.698Z,30.15
2018-05-16T22:56:29.329Z,36.50
2018-05-16T22:58:56.930Z,34.92
2018-05-16T23:01:24.574Z,31.67
2018-05-16T23:03:52.177Z,29.80
2018-05-16T23:06:19.833Z,31.98
2018-05-16T23:08:47.469Z,38.72
2018-05-16T23:11:15.061Z,36.40
2018-05-16T23:13:42.706Z,33.95
2018-05-16T23:16:10.403Z,32.25
2018-05-16T23:18:37.997Z,31.23
2018-05-16T23:21:05.620Z,34.97
2018-05-16T23:23:33.231Z,37.05
2018-05-16T23:26:00.882Z,33.47
2018-05-16T23:28:28.460Z,36.50
2018-05-16T23:30:56.144Z,34.05
2018-05-16T23:33:23.785Z,34.85
2018-05-16T23:35:51.379Z,36.15
2018-05-16T23:38:19.059Z,36.03
2018-05-16T23:40:46.671Z,38.55
2018-05-16T23:43:14.276Z,42.13
2018-05-16T23:45:42.691Z,36.00
2018-05-16T23:48:10.331Z,33.92
2018-05-16T23:50:38.821Z,40.97
2018-05-16T23:53:06.453Z,38.78
2018-05-16T23:55:34.108Z,39.17
2018-05-16T23:58:01.722Z,38.92
